createdAt,value
2023-04-25T00:00:29.469Z,1.00
2023-04-25T00:02:59.531Z,1.00
2023-04-25T00:05:30.537Z,1.00
2023-04-25T00:08:00.859Z,1.00
2023-04-25T00:10:30.392Z,1.00
2023-04-25T00:12:58.588Z,1.00
2023-04-25T00:15:27.943Z,1.00
2023-04-25T00:17:57.392Z,1.00
2023-04-25T00:20:25.795Z,1.00
2023-04-25T00:22:55.360Z,1.00
2023-04-25T00:25:24.753Z,1.00
2023-04-25T00:27:55.514Z,1.00
2023-04-25T00:30:23.671Z,1.00
2023-04-25T00:32:53.139Z,1.00
2023-04-25T00:35:22.563Z,1.00
2023-04-25T00:37:53.108Z,1.00
2023-04-25T00:40:22.780Z,1.00
2023-04-25T00:42:53.574Z,3.20
2023-04-25T00:45:28.968Z,55.90
2023-04-25T00:47:58.779Z,62.20
2023-04-25T00:50:27.110Z,99.90
2023-04-25T00:52:56.625Z,99.90
2023-04-25T00:55:26.164Z,99.90
2023-04-25T00:57:55.548Z,99.90
2023-04-25T01:00:26.497Z,99.90
2023-04-25T01:02:56.142Z,99.90
2023-04-25T01:05:25.911Z,99.90
2023-04-25T01:07:56.102Z,99.90
2023-04-25T01:10:24.570Z,99.90
2023-04-25T01:12:52.752Z,99.90
2023-04-25T01:15:21.214Z,99.90
2023-04-25T01:17:52.452Z,99.90
2023-04-25T01:20:24.211Z,99.90
2023-04-25T01:22:57.191Z,99.90
2023-04-25T01:25:25.760Z,99.90
2023-04-25T01:27:55.743Z,99.90
2023-04-25T01:30:25.447Z,99.90
2023-04-25T01:32:54.552Z,99.90
2023-04-25T01:35:24.886Z,99.90
2023-04-25T01:37:58.405Z,99.90
2023-04-25T01:40:28.741Z,99.90
2023-04-25T01:43:00.289Z,1.00
2023-04-25T01:45:29.819Z,1.00
2023-04-25T01:48:01.481Z,1.00
2023-04-25T01:50:31.188Z,1.00
2023-04-25T01:53:02.814Z,1.00
2023-04-25T01:55:30.984Z,1.00
2023-04-25T01:58:10.044Z,1.00
2023-04-25T02:00:55.229Z,1.00
2023-04-25T02:03:26.548Z,1.00
2023-04-25T02:05:57.430Z,1.00
2023-04-25T02:08:28.140Z,1.00
2023-04-25T02:10:57.718Z,1.00
2023-04-25T02:13:32.712Z,1.00
2023-04-25T02:16:22.640Z,1.00
2023-04-25T02:18:53.747Z,1.00
2023-04-25T02:21:23.199Z,1.00
2023-04-25T02:23:53.346Z,1.00
2023-04-25T02:26:22.095Z,1.00
2023-04-25T02:28:50.607Z,1.00
2023-04-25T02:31:19.003Z,1.00
2023-04-25T02:33:49.046Z,1.00
2023-04-25T02:36:18.658Z,1.00
2023-04-25T02:38:46.806Z,1.00
2023-04-25T02:41:17.559Z,1.00
2023-04-25T02:43:48.326Z,1.00
2023-04-25T02:46:32.049Z,1.00
2023-04-25T02:49:08.301Z,1.00
2023-04-25T02:51:38.917Z,1.00
2023-04-25T02:54:07.570Z,1.00
2023-04-25T02:56:43.394Z,1.00
2023-04-25T02:59:17.548Z,1.00
2023-04-25T03:01:47.278Z,1.00
2023-04-25T03:04:15.525Z,1.00
2023-04-25T03:06:44.981Z,1.00
2023-04-25T03:09:13.297Z,1.00
2023-04-25T03:11:45.515Z,1.00
2023-04-25T03:14:15.603Z,1.00
2023-04-25T03:16:45.006Z,1.00
2023-04-25T03:19:16.996Z,1.00
2023-04-25T03:21:45.984Z,1.00
2023-04-25T03:24:16.340Z,1.00
2023-04-25T03:26:48.242Z,1.00
2023-04-25T03:29:16.505Z,1.00
2023-04-25T03:31:47.829Z,1.00
2023-04-25T03:34:17.258Z,1.00
2023-04-25T03:36:46.193Z,1.00
2023-04-25T03:39:16.427Z,1.00
2023-04-25T03:41:52.643Z,1.00
2023-04-25T03:44:21.960Z,1.00
2023-04-25T03:46:52.940Z,1.00
2023-04-25T03:49:21.095Z,1.00
2023-04-25T03:51:58.704Z,1.00
2023-04-25T03:54:28.632Z,1.00
2023-04-25T03:57:09.171Z,1.00
2023-04-25T03:59:40.938Z,1.00
2023-04-25T04:02:11.812Z,1.00
2023-04-25T04:04:42.441Z,1.00
2023-04-25T04:07:12.867Z,1.00
2023-04-25T04:09:43.609Z,1.00
2023-04-25T04:12:22.307Z,1.00
2023-04-25T04:14:50.432Z,1.00
2023-04-25T04:17:18.610Z,1.00
2023-04-25T04:19:47.304Z,1.00
2023-04-25T04:22:21.299Z,1.00
2023-04-25T04:24:50.968Z,1.00
2023-04-25T04:27:26.189Z,1.00
2023-04-25T04:30:18.385Z,1.00
2023-04-25T04:33:01.313Z,1.00
2023-04-25T04:35:29.886Z,1.00
2023-04-25T04:38:01.812Z,1.00
2023-04-25T04:40:34.686Z,1.00
2023-04-25T04:43:28.178Z,1.00
2023-04-25T04:46:13.736Z,1.00
2023-04-25T04:49:00.219Z,1.00
2023-04-25T04:51:46.529Z,1.00
2023-04-25T04:54:32.213Z,1.00
2023-04-25T04:57:37.932Z,1.00
2023-04-25T05:00:25.822Z,1.00
2023-04-25T05:03:24.439Z,1.00
2023-04-25T05:06:09.818Z,1.00
2023-04-25T05:09:11.473Z,1.00
2023-04-25T05:11:52.126Z,1.00
2023-04-25T05:14:49.240Z,1.00
2023-04-25T05:17:34.964Z,1.00
2023-04-25T05:20:33.770Z,1.00
2023-04-25T05:23:25.024Z,1.00
2023-04-25T05:26:14.973Z,1.00
2023-04-25T05:28:56.259Z,1.00
2023-04-25T05:31:43.900Z,1.00
2023-04-25T05:34:17.740Z,1.00
2023-04-25T05:37:03.727Z,1.00
2023-04-25T05:39:35.254Z,1.00
2023-04-25T05:42:27.869Z,1.00
2023-04-25T05:45:20.226Z,1.00
2023-04-25T05:48:14.460Z,1.00
2023-04-25T05:50:54.769Z,1.00
2023-04-25T05:53:42.876Z,1.00
2023-04-25T05:56:11.191Z,1.00
2023-04-25T05:58:42.378Z,1.00
2023-04-25T06:01:12.915Z,1.00
2023-04-25T06:03:45.219Z,1.00
2023-04-25T06:06:16.224Z,1.00
2023-04-25T06:08:44.571Z,1.00
2023-04-25T06:11:13.676Z,1.00
2023-04-25T06:13:41.967Z,1.00
2023-04-25T06:16:10.582Z,1.00
2023-04-25T06:18:40.589Z,1.00
2023-04-25T06:21:08.988Z,1.00
2023-04-25T06:23:41.675Z,1.00
2023-04-25T06:26:14.048Z,1.00
2023-04-25T06:28:45.616Z,1.00
2023-04-25T06:31:15.893Z,1.00
2023-04-25T06:33:48.525Z,1.00
2023-04-25T06:36:18.361Z,1.00
2023-04-25T06:38:53.038Z,1.00
2023-04-25T06:41:22.586Z,1.00
2023-04-25T06:43:50.854Z,1.00
2023-04-25T06:46:42.364Z,1.00
2023-04-25T06:49:11.827Z,99.90
2023-04-25T06:54:12.275Z,99.90
2023-04-25T06:56:50.816Z,99.90
2023-04-25T06:59:21.933Z,99.90
2023-04-25T07:01:52.508Z,99.90
2023-04-25T07:04:27.044Z,99.90
2023-04-25T07:07:02.108Z,99.90
2023-04-25T07:09:43.920Z,99.90
2023-04-25T07:12:13.440Z,82.30
2023-04-25T07:14:42.546Z,45.20
2023-04-25T07:17:12.772Z,9.10
2023-04-25T07:19:42.826Z,1.00
2023-04-25T07:22:14.117Z,1.00
2023-04-25T07:24:48.441Z,1.00
2023-04-25T07:27:21.602Z,1.00
2023-04-25T07:29:58.440Z,1.00
2023-04-25T07:32:27.774Z,1.00
2023-04-25T07:34:56.148Z,1.00
2023-04-25T07:37:24.486Z,1.00
2023-04-25T07:40:23.626Z,1.00
2023-04-25T07:43:07.825Z,1.00
2023-04-25T07:45:52.135Z,1.00
2023-04-25T07:48:22.681Z,1.00
2023-04-25T07:50:54.409Z,1.00
2023-04-25T07:53:23.497Z,1.00
2023-04-25T07:55:57.719Z,1.00
2023-04-25T07:58:26.413Z,1.00
2023-04-25T08:01:00.155Z,1.00
2023-04-25T08:03:45.176Z,1.00
2023-04-25T08:06:21.706Z,1.00
2023-04-25T08:09:00.027Z,1.00
2023-04-25T08:11:37.341Z,1.00
2023-04-25T08:14:08.560Z,1.00
2023-04-25T08:16:39.363Z,1.00
2023-04-25T08:19:08.493Z,1.00
2023-04-25T08:21:38.916Z,1.00
2023-04-25T08:24:13.178Z,1.00
2023-04-25T08:26:44.743Z,1.00
2023-04-25T08:29:17.507Z,1.00
2023-04-25T08:31:47.053Z,1.00
2023-04-25T08:34:16.734Z,1.00
2023-04-25T08:36:47.882Z,1.00
2023-04-25T08:39:37.029Z,1.00
2023-04-25T08:42:31.301Z,1.00
2023-04-25T08:45:07.136Z,1.00
2023-04-25T08:47:42.708Z,1.00
2023-04-25T08:50:14.579Z,1.00
2023-04-25T08:52:47.472Z,1.00
2023-04-25T08:55:18.912Z,1.00
2023-04-25T08:57:52.576Z,1.00
2023-04-25T09:00:24.079Z,1.00
2023-04-25T09:02:53.052Z,1.00
2023-04-25T09:05:23.113Z,1.00
2023-04-25T09:07:54.442Z,1.00
2023-04-25T09:10:24.016Z,1.00
2023-04-25T09:13:11.394Z,1.00
2023-04-25T09:16:06.794Z,1.00
2023-04-25T09:18:52.609Z,1.00
2023-04-25T09:21:25.113Z,1.00
2023-04-25T09:23:56.796Z,1.00
2023-04-25T09:26:27.930Z,1.00
2023-04-25T09:29:10.353Z,1.00
2023-04-25T09:31:43.060Z,1.00
2023-04-25T09:34:17.877Z,1.00
2023-04-25T09:36:56.279Z,1.00
2023-04-25T09:39:42.479Z,1.00
2023-04-25T09:42:16.590Z,1.00
2023-04-25T09:44:49.436Z,1.00
2023-04-25T09:47:18.806Z,1.00
2023-04-25T09:49:48.939Z,1.00
2023-04-25T09:52:25.593Z,1.00
2023-04-25T09:55:11.826Z,1.00
2023-04-25T09:57:42.647Z,1.00
2023-04-25T10:00:15.664Z,1.00
2023-04-25T10:02:49.094Z,1.00
2023-04-25T10:05:40.323Z,1.00
2023-04-25T10:08:11.347Z,1.00
2023-04-25T10:10:42.261Z,1.00
2023-04-25T10:13:15.335Z,1.00
2023-04-25T10:15:48.999Z,1.00
2023-04-25T10:18:21.767Z,1.00
2023-04-25T10:20:52.232Z,1.00
2023-04-25T10:23:25.251Z,1.00
2023-04-25T10:25:56.012Z,1.00
2023-04-25T10:28:25.365Z,1.00
2023-04-25T10:31:05.097Z,1.00
2023-04-25T10:33:39.789Z,1.00
2023-04-25T10:36:14.446Z,1.00
2023-04-25T10:38:49.100Z,1.00
2023-04-25T10:41:21.447Z,1.00
2023-04-25T10:43:51.750Z,1.00
2023-04-25T10:46:28.143Z,1.00
2023-04-25T10:48:58.544Z,1.00
2023-04-25T10:51:40.108Z,1.00
2023-04-25T10:54:12.026Z,1.00
2023-04-25T10:56:45.272Z,1.00
2023-04-25T10:59:17.230Z,1.00
2023-04-25T11:01:48.691Z,1.00
2023-04-25T11:04:25.660Z,1.00
2023-04-25T11:07:13.013Z,1.00
2023-04-25T11:09:43.269Z,1.00
2023-04-25T11:12:15.964Z,1.00
2023-04-25T11:14:46.691Z,1.00
2023-04-25T11:17:16.436Z,1.00
2023-04-25T11:19:45.953Z,1.00
2023-04-25T11:22:14.658Z,1.00
2023-04-25T11:24:45.489Z,1.00
2023-04-25T11:27:15.604Z,1.00
2023-04-25T11:29:45.521Z,1.00
2023-04-25T11:32:18.166Z,1.00
2023-04-25T11:34:48.953Z,1.00
2023-04-25T11:37:18.795Z,1.00
2023-04-25T11:39:48.565Z,1.00
2023-04-25T11:42:17.081Z,1.00
2023-04-25T11:44:46.513Z,1.00
2023-04-25T11:47:16.131Z,1.00
2023-04-25T11:49:45.659Z,1.00
2023-04-25T11:52:15.111Z,1.00
2023-04-25T11:54:43.370Z,1.00
2023-04-25T11:57:11.673Z,1.00
2023-04-25T11:59:40.019Z,1.00
2023-04-25T12:02:08.505Z,1.00
2023-04-25T12:04:38.536Z,1.00
2023-04-25T12:07:12.423Z,1.00
2023-04-25T12:09:43.806Z,1.00
2023-04-25T12:12:12.574Z,1.00
2023-04-25T12:14:42.212Z,1.00
2023-04-25T12:17:10.906Z,1.00
2023-04-25T12:19:42.127Z,1.00
2023-04-25T12:22:22.729Z,1.00
2023-04-25T12:24:52.620Z,1.00
2023-04-25T12:27:22.011Z,1.00
2023-04-25T12:29:56.749Z,1.00
2023-04-25T12:32:26.084Z,1.00
2023-04-25T12:34:58.322Z,1.00
2023-04-25T12:37:27.936Z,1.00
2023-04-25T12:39:57.361Z,1.00
2023-04-25T12:42:25.607Z,1.00
2023-04-25T12:44:55.023Z,1.00
2023-04-25T12:47:24.496Z,1.00
2023-04-25T12:49:53.984Z,1.00
2023-04-25T12:52:24.829Z,1.00
2023-04-25T12:54:55.520Z,1.00
2023-04-25T12:57:24.929Z,1.00
2023-04-25T12:59:58.408Z,1.00
2023-04-25T13:02:27.603Z,1.00
2023-04-25T13:04:58.377Z,1.00
2023-04-25T13:07:29.214Z,1.00
2023-04-25T13:09:57.566Z,1.00
2023-04-25T13:12:25.735Z,1.00
2023-04-25T13:14:56.543Z,1.00
2023-04-25T13:17:27.508Z,1.00
2023-04-25T13:19:58.353Z,1.00
2023-04-25T13:22:29.337Z,1.00
2023-04-25T13:24:58.719Z,1.00
2023-04-25T13:27:28.526Z,1.00
2023-04-25T13:29:56.794Z,1.00
2023-04-25T13:32:26.436Z,1.00
2023-04-25T13:34:56.975Z,1.00
2023-04-25T13:37:28.060Z,1.00
2023-04-25T13:39:57.765Z,1.00
2023-04-25T13:42:26.277Z,1.00
2023-04-25T13:44:57.301Z,1.00
2023-04-25T13:47:26.013Z,1.00
2023-04-25T13:49:56.956Z,1.00
2023-04-25T13:52:25.736Z,1.00
2023-04-25T13:54:55.508Z,1.00
2023-04-25T13:57:23.922Z,1.00
2023-04-25T13:59:55.142Z,1.00
2023-04-25T14:02:25.227Z,1.00
2023-04-25T14:04:54.926Z,1.00
2023-04-25T14:07:24.595Z,1.00
2023-04-25T14:09:53.972Z,1.00
2023-04-25T14:12:25.098Z,1.00
2023-04-25T14:14:54.738Z,1.00
2023-04-25T14:17:25.640Z,1.00
2023-04-25T14:19:55.617Z,1.00
2023-04-25T14:22:25.216Z,1.00
2023-04-25T14:24:54.866Z,1.00
2023-04-25T14:27:24.940Z,1.00
2023-04-25T14:29:55.245Z,1.00
2023-04-25T14:32:26.115Z,1.00
2023-04-25T14:34:54.341Z,1.00
2023-04-25T14:37:22.686Z,1.00
2023-04-25T14:39:50.873Z,1.00
2023-04-25T14:42:21.787Z,1.00
2023-04-25T14:44:52.009Z,1.00
2023-04-25T14:47:22.797Z,1.00
2023-04-25T14:49:56.263Z,1.00
2023-04-25T14:52:24.982Z,1.00
2023-04-25T14:54:54.476Z,1.00
2023-04-25T14:57:25.234Z,1.00
2023-04-25T14:59:53.976Z,1.00
2023-04-25T15:02:23.588Z,1.00
2023-04-25T15:04:52.083Z,1.00
2023-04-25T15:07:22.336Z,1.00
2023-04-25T15:09:51.171Z,1.00
2023-04-25T15:12:19.590Z,1.00
2023-04-25T15:14:50.968Z,1.00
2023-04-25T15:17:19.196Z,1.00
2023-04-25T15:19:48.634Z,1.00
2023-04-25T15:22:17.049Z,1.00
2023-04-25T15:24:46.798Z,1.00
2023-04-25T15:27:16.461Z,1.00
2023-04-25T15:29:46.559Z,1.00
2023-04-25T15:32:17.890Z,1.00
2023-04-25T15:34:47.549Z,1.00
2023-04-25T15:37:16.262Z,1.00
2023-04-25T15:39:46.712Z,1.00
2023-04-25T15:42:15.076Z,1.00
2023-04-25T15:44:44.933Z,1.00
2023-04-25T15:47:15.856Z,1.00
2023-04-25T15:49:44.034Z,1.00
2023-04-25T15:52:13.975Z,1.00
2023-04-25T15:54:43.648Z,1.00
2023-04-25T15:57:14.865Z,1.00
2023-04-25T15:59:45.573Z,1.00
2023-04-25T16:02:18.901Z,1.00
2023-04-25T16:04:48.450Z,1.00
2023-04-25T16:07:18.451Z,1.00
2023-04-25T16:09:46.834Z,1.00
2023-04-25T16:12:15.113Z,1.00
2023-04-25T16:14:43.385Z,1.00
2023-04-25T16:17:14.015Z,1.00
2023-04-25T16:19:43.645Z,1.00
2023-04-25T16:22:13.379Z,1.00
2023-04-25T16:24:41.744Z,1.00
2023-04-25T16:27:11.341Z,1.00
2023-04-25T16:29:40.824Z,1.00
2023-04-25T16:32:10.331Z,1.00
2023-04-25T16:34:38.750Z,1.00
2023-04-25T16:37:09.611Z,1.00
2023-04-25T16:39:39.113Z,1.00
2023-04-25T16:42:08.612Z,1.00
2023-04-25T16:44:38.169Z,1.00
2023-04-25T16:47:08.229Z,1.00
2023-04-25T16:49:39.106Z,1.00
2023-04-25T16:52:11.161Z,1.00
2023-04-25T16:54:41.195Z,1.00
2023-04-25T16:57:11.750Z,1.00
2023-04-25T16:59:40.376Z,1.00
2023-04-25T17:02:15.326Z,1.00
2023-04-25T17:04:45.045Z,1.00
2023-04-25T17:07:15.986Z,1.00
2023-04-25T17:09:45.482Z,1.00
2023-04-25T17:12:14.962Z,1.00
2023-04-25T17:14:43.840Z,1.00
2023-04-25T17:17:12.074Z,1.00
2023-04-25T17:19:40.405Z,1.00
2023-04-25T17:22:09.930Z,1.00
2023-04-25T17:24:41.610Z,1.00
2023-04-25T17:27:13.019Z,1.00
2023-04-25T17:29:41.465Z,1.00
2023-04-25T17:32:12.795Z,1.00
2023-04-25T17:34:41.249Z,1.00
2023-04-25T17:37:16.439Z,1.00
2023-04-25T17:39:47.244Z,1.00
2023-04-25T17:42:16.945Z,1.00
2023-04-25T17:44:46.392Z,1.00
2023-04-25T17:47:15.947Z,1.00
2023-04-25T17:49:44.157Z,1.00
2023-04-25T17:52:14.734Z,1.00
2023-04-25T17:54:44.101Z,1.00
2023-04-25T17:57:14.951Z,1.00
2023-04-25T17:59:44.486Z,1.00
2023-04-25T18:02:15.317Z,1.00
2023-04-25T18:04:43.732Z,1.00
2023-04-25T18:07:12.399Z,1.00
2023-04-25T18:09:41.839Z,1.00
2023-04-25T18:12:10.071Z,1.00
2023-04-25T18:14:39.916Z,1.00
2023-04-25T18:17:08.985Z,1.00
2023-04-25T18:19:37.160Z,1.00
2023-04-25T18:22:06.880Z,1.00
2023-04-25T18:24:35.379Z,1.00
2023-04-25T18:29:37.376Z,1.00
2023-04-25T18:32:07.369Z,1.00
2023-04-25T18:34:35.669Z,1.00
2023-04-25T18:37:06.410Z,1.00
2023-04-25T18:39:35.895Z,1.00
2023-04-25T18:42:07.185Z,1.00
2023-04-25T18:44:39.698Z,1.00
2023-04-25T18:47:12.084Z,1.00
2023-04-25T18:49:40.893Z,1.00
2023-04-25T18:52:12.339Z,1.00
2023-04-25T18:54:42.507Z,1.00
2023-04-25T18:57:14.197Z,1.00
2023-04-25T18:59:45.437Z,1.00
2023-04-25T19:02:17.276Z,1.00
2023-04-25T19:04:46.770Z,1.00
2023-04-25T19:07:15.747Z,1.00
2023-04-25T19:09:45.117Z,1.00
2023-04-25T19:12:15.050Z,1.00
2023-04-25T19:17:13.904Z,1.00
2023-04-25T19:19:43.375Z,1.00
2023-04-25T19:22:11.752Z,1.00
2023-04-25T19:24:39.980Z,1.00
2023-04-25T19:27:08.534Z,1.00
2023-04-25T19:29:38.342Z,1.00
2023-04-25T19:32:08.315Z,1.00
2023-04-25T19:34:38.217Z,1.00
2023-04-25T19:37:09.288Z,1.00
2023-04-25T19:39:37.844Z,1.00
2023-04-25T19:42:07.725Z,1.00
2023-04-25T19:44:39.564Z,1.00
2023-04-25T19:47:11.207Z,1.00
2023-04-25T19:49:41.884Z,1.00
2023-04-25T19:52:16.100Z,1.00
2023-04-25T19:54:46.592Z,1.00
2023-04-25T19:57:16.222Z,1.00
2023-04-25T19:59:48.091Z,1.00
2023-04-25T20:02:19.549Z,1.00
2023-04-25T20:04:47.788Z,1.00
2023-04-25T20:07:20.095Z,1.00
2023-04-25T20:09:48.481Z,1.00
2023-04-25T20:12:18.005Z,1.00
2023-04-25T20:14:47.431Z,1.00
2023-04-25T20:17:17.973Z,1.00
2023-04-25T20:19:47.406Z,1.00
2023-04-25T20:22:19.440Z,1.00
2023-04-25T20:24:48.876Z,1.00
2023-04-25T20:27:18.225Z,1.00
2023-04-25T20:29:47.916Z,1.00
2023-04-25T20:32:17.369Z,1.00
2023-04-25T20:34:45.905Z,1.00
2023-04-25T20:37:15.539Z,1.00
2023-04-25T20:39:48.872Z,1.00
2023-04-25T20:42:19.421Z,1.00
2023-04-25T20:44:49.129Z,1.00
2023-04-25T20:47:19.824Z,1.00
2023-04-25T20:49:49.922Z,1.00
2023-04-25T20:52:19.231Z,1.00
2023-04-25T20:54:51.828Z,1.00
2023-04-25T20:57:21.224Z,1.00
2023-04-25T20:59:50.981Z,1.00
2023-04-25T21:02:20.784Z,1.00
2023-04-25T21:04:50.203Z,1.00
2023-04-25T21:07:19.531Z,1.00
2023-04-25T21:09:50.211Z,1.00
2023-04-25T21:12:19.498Z,1.00
2023-04-25T21:14:47.594Z,1.00
2023-04-25T21:17:17.056Z,1.00
2023-04-25T21:19:45.219Z,1.00
2023-04-25T21:22:14.585Z,1.00
2023-04-25T21:24:42.749Z,1.00
2023-04-25T21:27:13.595Z,1.00
2023-04-25T21:29:41.721Z,1.00
2023-04-25T21:32:10.554Z,1.00
2023-04-25T21:34:39.873Z,1.00
2023-04-25T21:37:10.375Z,1.00
2023-04-25T21:39:38.495Z,1.00
2023-04-25T21:42:10.196Z,1.00
2023-04-25T21:44:41.037Z,1.00
2023-04-25T21:47:11.564Z,1.00
2023-04-25T21:49:39.687Z,1.00
2023-04-25T21:52:09.685Z,1.00
2023-04-25T21:54:39.020Z,1.00
2023-04-25T21:57:08.388Z,1.00
2023-04-25T21:59:37.789Z,1.00
2023-04-25T22:02:09.119Z,1.00
2023-04-25T22:04:39.265Z,1.00
2023-04-25T22:07:09.033Z,1.00
2023-04-25T22:09:47.343Z,1.00
2023-04-25T22:12:23.872Z,1.00
2023-04-25T22:14:52.059Z,1.00
2023-04-25T22:17:26.065Z,1.00
2023-04-25T22:19:55.375Z,1.00
2023-04-25T22:22:24.762Z,1.00
2023-04-25T22:24:54.817Z,1.00
2023-04-25T22:27:24.156Z,1.00
2023-04-25T22:29:54.027Z,1.00
2023-04-25T22:32:23.617Z,1.00
2023-04-25T22:34:52.930Z,1.00
2023-04-25T22:37:23.506Z,1.00
2023-04-25T22:39:52.913Z,1.00
2023-04-25T22:42:22.306Z,1.00
2023-04-25T22:44:50.473Z,1.00
2023-04-25T22:47:18.716Z,1.00
2023-04-25T22:49:49.596Z,1.00
2023-04-25T22:52:18.968Z,1.00
2023-04-25T22:54:47.187Z,1.00
2023-04-25T22:59:45.585Z,1.00
2023-04-25T23:02:14.948Z,1.00
2023-04-25T23:04:43.219Z,1.00
2023-04-25T23:07:14.039Z,1.00
2023-04-25T23:09:45.076Z,1.00
2023-04-25T23:12:13.202Z,1.00
2023-04-25T23:14:42.799Z,1.00
2023-04-25T23:17:12.461Z,1.00
2023-04-25T23:19:40.734Z,4.30
2023-04-25T23:22:10.629Z,15.20
2023-04-25T23:24:41.409Z,19.80
2023-04-25T23:27:09.564Z,19.80
2023-04-25T23:29:40.543Z,25.60
2023-04-25T23:32:10.318Z,36.20
2023-04-25T23:34:38.473Z,46.40
2023-04-25T23:37:07.102Z,58.10
2023-04-25T23:39:36.587Z,71.70
2023-04-25T23:42:06.114Z,26.30
2023-04-25T23:44:35.460Z,78.60
2023-04-25T23:47:03.426Z,17.00
2023-04-25T23:49:33.610Z,91.20
2023-04-25T23:52:01.741Z,88.00
2023-04-25T23:54:32.108Z,28.90
2023-04-25T23:57:01.466Z,97.60
2023-04-25T23:59:32.320Z,99.90
